Time;durP1;ratioP1;P1;durP2;ratioP2;P2;SDS_P1;SDS_P2;PMS_P1;PMS_P2;Temp;Humidity;BMP_temperature;BMP_pressure;BME280_temperature;BME280_humidity;BME280_pressure;Samples;Min_cycle;Max_cycle;Signal;HPM_P1;HPM_P2
2023/10/04 00:01:12;;;;;;;26.23;15.75;;;;;;;11.04;76.93;98314.53;10328055;28;20079;-49
2023/10/04 00:06:11;;;;;;;23.83;14.05;;;;;;;11.02;77.07;98311.06;10328846;28;20539;-51
2023/10/04 00:11:16;;;;;;;25.73;15.02;;;;;;;11.05;76.65;98307.59;10327676;28;20543;-51
2023/10/04 00:16:15;;;;;;;26.48;15.68;;;;;;;10.96;77.25;98299.75;10324804;28;20069;-49
2023/10/04 00:21:15;;;;;;;20.40;14.00;;;;;;;10.93;77.04;98312.72;10325156;28;20092;-50
2023/10/04 00:26:14;;;;;;;23.23;13.77;;;;;;;10.83;77.27;98301.38;10323935;28;20129;-50
2023/10/04 00:31:13;;;;;;;25.23;14.85;;;;;;;10.79;77.18;98304.81;10324685;28;20089;-51
2023/10/04 00:36:13;;;;;;;27.92;15.07;;;;;;;10.65;77.47;98296.91;10323898;28;20508;-51
2023/10/04 00:41:12;;;;;;;23.60;13.82;;;;;;;10.64;78.56;98299.53;10324379;28;20091;-52
2023/10/04 00:46:11;;;;;;;24.92;14.45;;;;;;;10.58;78.29;98298.59;10323251;28;20044;-50
2023/10/04 00:51:12;;;;;;;27.73;13.75;;;;;;;10.43;78.51;98297.63;10322445;28;20034;-49
2023/10/04 00:56:14;;;;;;;25.88;15.20;;;;;;;10.45;78.44;98288.09;10323533;28;20068;-52
2023/10/04 01:01:16;;;;;;;26.20;15.05;;;;;;;10.32;78.67;98292.34;10322935;28;20088;-50
2023/10/04 01:06:16;;;;;;;25.83;14.45;;;;;;;10.23;79.12;98280.16;10322661;28;20076;-51
2023/10/04 01:11:15;;;;;;;26.02;16.30;;;;;;;10.25;78.92;98300.94;10324296;28;20073;-51
2023/10/04 01:16:15;;;;;;;26.38;15.98;;;;;;;10.20;79.15;98303.47;10322815;28;20116;-49
2023/10/04 01:21:16;;;;;;;26.52;15.75;;;;;;;10.15;79.94;98300.84;10323673;28;20080;-51
2023/10/04 01:26:25;;;;;;;26.45;15.27;;;;;;;10.14;79.80;98300.81;10323811;28;20092;-51
2023/10/04 01:31:25;;;;;;;24.35;15.63;;;;;;;10.11;79.56;98298.19;10323161;28;20475;-50
2023/10/04 01:36:24;;;;;;;24.08;14.93;;;;;;;9.99;79.05;98292.03;10323336;28;20446;-51
2023/10/04 01:41:24;;;;;;;25.88;16.77;;;;;;;9.80;79.12;98252.97;10323011;28;20491;-51
2023/10/04 01:46:23;;;;;;;24.60;14.73;;;;;;;9.94;79.21;98295.44;10321832;28;20112;-49
2023/10/04 01:51:22;;;;;;;22.83;14.30;;;;;;;9.86;79.39;98302.25;10321238;28;20034;-49
2023/10/04 01:56:22;;;;;;;25.30;15.48;;;;;;;9.78;79.71;98312.56;10327731;28;20025;-49
2023/10/04 02:01:21;;;;;;;25.40;14.70;;;;;;;9.66;80.07;98305.50;10329820;28;20069;-49
2023/10/04 02:06:20;;;;;;;28.23;15.63;;;;;;;9.65;80.01;98308.06;10328781;28;20046;-50
2023/10/04 02:11:21;;;;;;;26.67;15.85;;;;;;;9.65;79.92;98308.97;10329988;28;20040;-51
2023/10/04 02:16:20;;;;;;;32.72;16.63;;;;;;;9.62;79.81;98308.91;10329557;28;20069;-49
2023/10/04 02:21:20;;;;;;;26.13;16.92;;;;;;;9.61;80.03;98312.38;10328967;28;20099;-49
2023/10/04 02:26:22;;;;;;;25.73;16.00;;;;;;;9.60;80.34;98308.03;10328967;28;20140;-50
2023/10/04 02:31:22;;;;;;;24.35;15.52;;;;;;;9.58;80.51;98312.31;10328887;28;20133;-51
2023/10/04 02:36:23;;;;;;;27.88;16.00;;;;;;;9.61;80.50;98317.56;10328060;28;20727;-50
2023/10/04 02:41:21;;;;;;;32.50;17.20;;;;;;;9.67;80.41;98315.00;10329368;28;20092;-50
2023/10/04 02:46:20;;;;;;;28.25;17.85;;;;;;;9.69;80.25;98308.13;10324584;28;20129;-52
2023/10/04 02:51:20;;;;;;;31.08;17.90;;;;;;;9.66;80.78;98310.69;10329126;28;20042;-51
2023/10/04 02:56:19;;;;;;;27.77;16.52;;;;;;;9.67;80.74;98312.41;10327179;28;20125;-49
2023/10/04 03:01:21;;;;;;;31.08;18.08;;;;;;;9.70;80.77;98307.28;10328181;28;20033;-52
2023/10/04 03:06:23;;;;;;;28.25;17.58;;;;;;;9.73;81.09;98303.88;10325972;28;20124;-51
2023/10/04 03:11:22;;;;;;;31.73;15.90;;;;;;;9.57;80.97;98305.41;10327007;28;20375;-52
2023/10/04 03:16:21;;;;;;;31.58;17.75;;;;;;;9.61;80.16;98307.19;10326309;28;20648;-50
2023/10/04 03:21:26;;;;;;;29.38;16.83;;;;;;;9.48;80.75;98290.59;10327238;28;20431;-51
2023/10/04 03:26:25;;;;;;;26.33;16.17;;;;;;;9.58;80.79;98317.50;10326337;28;20124;-50
2023/10/04 03:31:24;;;;;;;28.55;16.27;;;;;;;9.55;79.79;98312.28;10326370;28;20037;-50
2023/10/04 03:36:25;;;;;;;31.63;16.50;;;;;;;9.51;80.19;98313.09;10326710;28;20528;-49
2023/10/04 03:41:24;;;;;;;27.55;16.20;;;;;;;9.32;79.48;98289.59;10326719;28;20076;-51
2023/10/04 03:46:22;;;;;;;29.70;16.25;;;;;;;9.43;79.25;98323.38;10325198;28;20029;-48
2023/10/04 03:51:22;;;;;;;27.95;15.68;;;;;;;8.70;78.95;98212.78;10326319;28;20556;-50
2023/10/04 03:56:22;;;;;;;27.65;15.43;;;;;;;9.27;78.74;98314.50;10325120;28;20065;-50
2023/10/04 04:01:21;;;;;;;31.65;15.65;;;;;;;9.17;78.56;98299.69;10325220;28;20068;-49
2023/10/04 04:06:20;;;;;;;;;;;;;;;9.24;78.83;98317.03;10325369;28;20076;-51
2023/10/04 04:11:19;;;;;;;31.50;15.75;;;;;;;9.21;78.71;98316.13;10299125;28;19921;-48
2023/10/04 04:16:18;;;;;;;25.92;14.10;;;;;;;9.06;78.41;98311.63;10322410;28;20108;-51
2023/10/04 04:21:17;;;;;;;;;;;;;;;9.11;78.11;98315.13;10324558;28;20083;-50
2023/10/04 04:26:16;;;;;;;32.58;16.15;;;;;;;8.89;79.16;98309.66;10324395;28;19967;-50
2023/10/04 04:31:15;;;;;;;34.40;16.95;;;;;;;8.89;78.40;98314.84;10324794;28;20116;-49
2023/10/04 04:36:27;;;;;;;36.55;18.02;;;;;;;8.87;78.17;98310.50;10324075;28;20131;-50
2023/10/04 04:41:29;;;;;;;31.17;17.05;;;;;;;8.85;78.48;98313.03;10323756;28;20539;-51
2023/10/04 04:46:31;;;;;;;36.22;18.33;;;;;;;8.92;78.78;98309.69;10310184;28;20079;-50
2023/10/04 04:51:31;;;;;;;28.83;16.38;;;;;;;8.96;78.79;98308.03;10323468;28;20072;-49
2023/10/04 04:56:31;;;;;;;34.88;17.80;;;;;;;8.73;78.79;98261.13;10323102;28;20084;-50
2023/10/04 05:01:34;;;;;;;36.88;18.38;;;;;;;9.18;78.73;98309.19;10323173;28;20073;-49
2023/10/04 05:06:33;;;;;;;35.33;18.60;;;;;;;9.31;78.30;98307.69;10323113;28;20129;-51
2023/10/04 05:11:32;;;;;;;;;;;;;;;9.33;78.39;98322.38;10323863;28;20079;-50
2023/10/04 05:16:31;;;;;;;39.42;18.60;;;;;;;9.38;77.46;98317.25;10322186;28;20285;-48
2023/10/04 05:21:30;;;;;;;38.75;18.42;;;;;;;9.44;77.51;98325.13;10320366;28;20054;-49
2023/10/04 05:26:29;;;;;;;36.78;19.67;;;;;;;9.61;77.54;98327.06;10322982;28;20065;-50
2023/10/04 05:31:28;;;;;;;37.58;19.75;;;;;;;9.82;76.69;98327.28;10327637;28;20128;-49
2023/10/04 05:36:27;;;;;;;;;;;;;;;10.01;76.08;98343.06;10336250;28;20061;-48
2023/10/04 05:41:31;;;;;;;44.40;28.10;;;;;;;10.15;75.97;98342.34;10334556;28;19961;-48
2023/10/04 05:46:30;;;;;;;38.38;25.38;;;;;;;10.29;75.59;98333.81;10334270;28;20080;-48
2023/10/04 05:51:29;;;;;;;43.88;22.17;;;;;;;10.51;75.63;98340.06;10335993;28;20077;-49
2023/10/04 05:56:28;;;;;;;37.80;21.67;;;;;;;10.69;74.87;98339.34;10335228;28;20087;-50
2023/10/04 06:01:28;;;;;;;36.25;21.70;;;;;;;10.84;74.87;98332.53;10334929;28;20448;-51
2023/10/04 06:06:27;;;;;;;52.53;23.23;;;;;;;10.98;74.09;98337.00;10335664;28;20073;-50
2023/10/04 06:11:26;;;;;;;48.97;21.83;;;;;;;11.18;74.22;98337.13;10335882;28;20021;-51
2023/10/04 06:16:25;;;;;;;50.95;23.83;;;;;;;11.28;74.44;98338.91;10338469;28;20063;-49
2023/10/04 06:21:24;;;;;;;47.55;21.48;;;;;;;11.51;73.99;98351.16;10338257;28;20081;-50
2023/10/04 06:26:23;;;;;;;51.20;21.77;;;;;;;11.58;74.64;98350.34;10337811;28;20102;-49
2023/10/04 06:31:22;;;;;;;59.38;22.48;;;;;;;11.81;74.38;98353.03;10338406;28;20102;-49
2023/10/04 06:36:21;;;;;;;45.80;23.05;;;;;;;11.96;73.98;98350.47;10335561;28;20041;-51
2023/10/04 06:41:24;;;;;;;40.25;18.48;;;;;;;12.27;73.24;98354.06;10341173;28;20026;-49
2023/10/04 06:46:23;;;;;;;31.85;18.77;;;;;;;12.56;72.71;98350.63;10336510;28;20548;-49
2023/10/04 06:51:22;;;;;;;29.50;17.35;;;;;;;12.85;71.74;98353.22;10337146;28;20444;-50
2023/10/04 06:56:21;;;;;;;26.88;15.25;;;;;;;13.08;70.95;98355.78;10340102;28;20029;-50
2023/10/04 07:01:20;;;;;;;23.73;15.27;;;;;;;13.36;70.03;98345.31;10340037;28;20071;-49
2023/10/04 07:06:19;;;;;;;23.55;13.70;;;;;;;13.67;69.06;98347.84;10333180;28;20035;-51
2023/10/04 07:11:18;;;;;;;;;;;;;;;13.84;67.36;98346.03;10336979;28;20112;-51
2023/10/04 07:16:17;;;;;;;23.27;12.63;;;;;;;14.32;64.21;98349.25;10335640;28;20633;-52
2023/10/04 07:21:16;;;;;;;;;;;;;;;14.62;64.14;98340.34;10336352;28;20116;-51
2023/10/04 07:26:15;;;;;;;24.10;12.60;;;;;;;14.92;61.97;98327.94;10321211;28;20660;-51
2023/10/04 07:31:14;;;;;;;;;;;;;;;15.32;61.11;98324.03;10309138;28;20755;-51
2023/10/04 07:36:14;;;;;;;36.23;13.53;;;;;;;15.51;59.59;98324.72;10332991;28;19951;-51
2023/10/04 07:41:13;;;;;;;23.27;12.93;;;;;;;15.82;57.81;98327.84;10339279;28;20088;-50
2023/10/04 07:46:12;;;;;;;;;;;;;;;16.25;57.22;98327.25;10331085;28;20128;-50
2023/10/04 07:51:11;;;;;;;24.48;12.73;;;;;;;16.47;56.37;98328.66;10331404;28;19920;-52
2023/10/04 07:56:11;;;;;;;;;;;;;;;16.78;55.35;98322.91;10333861;28;20334;-52
2023/10/04 08:01:10;;;;;;;22.20;10.88;;;;;;;17.14;53.64;98320.56;10327242;28;19984;-52
2023/10/04 08:06:12;;;;;;;20.90;11.65;;;;;;;17.48;52.02;98323.41;10329302;28;20112;-51
2023/10/04 08:11:11;;;;;;;21.77;11.25;;;;;;;17.70;51.03;98310.72;10327679;28;20060;-52
2023/10/04 08:16:10;;;;;;;20.90;11.68;;;;;;;18.12;50.26;98302.84;10329210;28;20083;-51
2023/10/04 08:21:09;;;;;;;28.48;11.43;;;;;;;18.42;48.93;98289.91;10327617;28;20524;-52
2023/10/04 08:26:15;;;;;;;26.00;12.15;;;;;;;18.75;49.04;98292.63;10327738;28;20133;-49
2023/10/04 08:31:16;;;;;;;24.67;11.10;;;;;;;19.08;48.27;98300.53;10328325;28;20077;-52
2023/10/04 08:36:16;;;;;;;19.58;8.93;;;;;;;19.32;47.50;98294.63;10329933;28;20083;-52
2023/10/04 08:41:18;;;;;;;19.67;9.98;;;;;;;19.45;46.11;98277.56;10328736;28;20072;-52
2023/10/04 08:46:19;;;;;;;21.80;10.48;;;;;;;19.87;45.25;98290.41;10327321;28;20108;-52
2023/10/04 08:51:33;;;;;;;24.70;10.63;;;;;;;20.20;45.01;98279.75;10327722;28;20515;-52
2023/10/04 08:56:38;;;;;;;20.38;9.55;;;;;;;20.29;44.91;98241.72;10326110;28;20487;-52
2023/10/04 09:01:39;;;;;;;15.68;8.43;;;;;;;20.82;43.30;98283.03;10326173;28;20072;-51
2023/10/04 09:06:38;;;;;;;15.25;8.52;;;;;;;21.05;42.42;98282.25;10334389;28;20068;-52
2023/10/04 09:11:38;;;;;;;16.38;8.50;;;;;;;21.33;41.81;98283.03;10334110;28;20047;-52
2023/10/04 09:16:37;;;;;;;14.73;8.50;;;;;;;21.65;41.32;98274.84;10334129;28;20068;-52
2023/10/04 09:21:38;;;;;;;15.98;8.52;;;;;;;21.82;40.01;98271.56;10335096;28;20033;-52
2023/10/04 09:26:38;;;;;;;13.40;7.75;;;;;;;21.98;39.43;98267.41;10329847;28;20159;-52
2023/10/04 09:31:50;;;;;;;17.08;8.68;;;;;;;22.29;39.02;98264.44;10334076;28;20493;-52
2023/10/04 09:36:52;;;;;;;13.50;7.95;;;;;;;22.23;36.81;98211.84;10335418;28;20064;-52
2023/10/04 09:41:54;;;;;;;13.55;7.72;;;;;;;22.77;35.47;98257.22;10335641;28;20057;-52
2023/10/04 09:47:01;;;;;;;18.05;8.48;;;;;;;22.94;35.45;98264.44;10332605;28;20069;-51
2023/10/04 09:52:03;;;;;;;16.23;8.30;;;;;;;23.11;35.72;98267.22;10338381;28;20049;-52
2023/10/04 09:57:12;;;;;;;15.40;7.82;;;;;;;23.32;35.06;98269.84;10336766;28;20061;-52
2023/10/04 10:02:15;;;;;;;15.43;8.65;;;;;;;23.55;33.65;98260.91;10332756;28;20077;-52
2023/10/04 10:07:22;;;;;;;16.88;7.60;;;;;;;23.57;33.04;98249.31;10333889;28;20068;-53
2023/10/04 10:12:22;;;;;;;16.17;8.43;;;;;;;23.74;32.51;98245.88;10331137;28;20069;-52
2023/10/04 10:17:21;;;;;;;15.48;8.25;;;;;;;23.90;32.34;98226.59;10329740;28;20113;-52
2023/10/04 10:22:20;;;;;;;14.88;7.53;;;;;;;23.98;31.90;98222.66;10330635;28;20153;-52
2023/10/04 10:27:20;;;;;;;16.48;7.90;;;;;;;24.18;31.13;98221.72;10330028;28;20072;-52
2023/10/04 10:32:20;;;;;;;14.00;7.75;;;;;;;24.49;31.36;98221.03;10332104;28;20102;-53
2023/10/04 10:37:23;;;;;;;17.63;7.85;;;;;;;24.59;30.99;98212.63;10331264;28;20065;-52
2023/10/04 10:42:23;;;;;;;15.27;7.40;;;;;;;24.67;30.29;98194.53;10330701;28;20124;-53
2023/10/04 10:47:25;;;;;;;11.32;6.90;;;;;;;24.87;29.98;98212.09;10331713;28;20084;-52
2023/10/04 10:52:33;;;;;;;13.68;7.22;;;;;;;25.01;29.69;98199.00;10331970;28;20073;-53
2023/10/04 10:57:36;;;;;;;12.63;6.47;;;;;;;25.26;30.31;98179.06;10332617;28;20079;-53
2023/10/04 11:02:35;;;;;;;12.07;7.25;;;;;;;25.41;29.18;98180.03;10332722;28;20057;-52
2023/10/04 11:07:34;;;;;;;13.88;6.95;;;;;;;25.56;29.35;98181.91;10331848;28;20036;-53
2023/10/04 11:12:42;;;;;;;15.27;7.05;;;;;;;25.71;28.50;98172.19;10333503;28;20357;-53
2023/10/04 11:17:41;;;;;;;14.63;8.13;;;;;;;25.91;28.62;98179.91;10328740;28;20073;-54
2023/10/04 11:22:41;;;;;;;15.80;7.25;;;;;;;25.99;27.98;98176.81;10335030;28;20032;-53
2023/10/04 11:27:48;;;;;;;15.73;7.10;;;;;;;26.08;29.05;98175.44;10330245;28;20544;-53
2023/10/04 11:32:47;;;;;;;13.57;7.28;;;;;;;26.14;27.64;98173.28;10336423;28;20064;-53
2023/10/04 11:37:49;;;;;;;14.30;7.10;;;;;;;26.25;28.04;98167.34;10337576;28;20029;-54
2023/10/04 11:42:58;;;;;;;14.35;8.07;;;;;;;26.38;27.88;98156.03;10334523;28;20084;-54
2023/10/04 11:48:05;;;;;;;16.83;7.70;;;;;;;26.70;28.48;98162.94;10334779;28;20071;-54
2023/10/04 11:53:05;;;;;;;13.00;7.43;;;;;;;26.68;26.81;98150.69;10334777;28;20068;-54
2023/10/04 11:58:05;;;;;;;14.95;7.82;;;;;;;26.82;27.49;98153.34;10336892;28;20061;-54
2023/10/04 12:03:06;;;;;;;12.18;6.97;;;;;;;26.88;26.85;98139.69;10336896;28;20060;-53
2023/10/04 12:08:06;;;;;;;13.70;6.55;;;;;;;26.61;27.20;98154.66;10337440;28;20103;-53
2023/10/04 12:13:05;;;;;;;13.50;7.28;;;;;;;26.68;27.59;98148.00;10333935;28;20093;-53
2023/10/04 12:18:05;;;;;;;14.90;7.47;;;;;;;26.74;26.94;98139.63;10332089;28;20144;-54
2023/10/04 12:23:04;;;;;;;14.88;7.78;;;;;;;26.57;27.05;98138.00;10333415;28;20065;-53
2023/10/04 12:28:07;;;;;;;13.60;6.82;;;;;;;26.22;26.77;98090.41;10333271;28;20069;-54
2023/10/04 12:33:08;;;;;;;13.02;7.47;;;;;;;26.63;26.58;98139.41;10332826;28;20049;-53
2023/10/04 12:38:08;;;;;;;12.85;7.20;;;;;;;26.82;26.65;98125.88;10332297;28;20064;-54
2023/10/04 12:43:07;;;;;;;15.73;7.13;;;;;;;26.81;26.83;98138.31;10331921;28;20064;-54
2023/10/04 12:48:06;;;;;;;13.00;6.38;;;;;;;26.74;25.76;98118.34;10328715;28;20547;-54
2023/10/04 12:53:09;;;;;;;12.70;7.25;;;;;;;26.85;25.93;98129.22;10331189;28;20065;-54
2023/10/04 12:58:08;;;;;;;13.32;6.70;;;;;;;26.88;25.79;98130.84;10326709;28;20061;-54
2023/10/04 13:03:08;;;;;;;12.35;6.65;;;;;;;27.01;25.13;98118.47;10331467;28;20072;-54
2023/10/04 13:08:08;;;;;;;13.45;7.13;;;;;;;26.84;25.74;98106.22;10331236;28;20065;-54
2023/10/04 13:13:07;;;;;;;11.68;6.05;;;;;;;26.97;26.09;98112.47;10331458;28;20068;-54
2023/10/04 13:18:08;;;;;;;11.73;6.45;;;;;;;26.92;26.46;98106.59;10331168;28;20073;-54
2023/10/04 13:23:07;;;;;;;12.77;6.32;;;;;;;26.94;25.65;98102.03;10331352;28;20077;-54
2023/10/04 13:28:06;;;;;;;13.55;7.15;;;;;;;27.08;25.62;98111.81;10330763;28;20064;-54
2023/10/04 13:33:05;;;;;;;11.60;7.15;;;;;;;27.04;26.12;98104.97;10330598;28;20068;-54
2023/10/04 13:38:04;;;;;;;12.68;5.93;;;;;;;26.78;25.48;98098.56;10331010;28;20069;-54
2023/10/04 13:43:05;;;;;;;13.60;5.90;;;;;;;26.98;25.92;98103.56;10332078;28;20077;-54
2023/10/04 13:48:09;;;;;;;11.98;5.82;;;;;;;26.84;25.51;98114.22;10331420;28;20065;-54
2023/10/04 13:53:11;;;;;;;13.55;6.35;;;;;;;26.86;25.58;98114.97;10337365;28;20065;-54
2023/10/04 13:58:14;;;;;;;13.18;7.07;;;;;;;26.68;26.06;98118.72;10338085;28;20060;-54
2023/10/04 14:03:13;;;;;;;18.30;7.43;;;;;;;26.63;27.18;98118.13;10338458;28;20063;-54
2023/10/04 14:08:12;;;;;;;10.68;6.32;;;;;;;26.54;26.13;98104.44;10337173;28;20033;-53
2023/10/04 14:13:12;;;;;;;13.75;7.68;;;;;;;26.67;26.74;98117.00;10338080;28;20377;-54
2023/10/04 14:18:11;;;;;;;13.50;6.63;;;;;;;26.39;27.11;98121.31;10339120;28;20040;-54
2023/10/04 14:23:10;;;;;;;13.27;6.32;;;;;;;26.38;26.81;98124.09;10340472;28;20065;-54
2023/10/04 14:28:09;;;;;;;16.10;7.00;;;;;;;26.17;27.41;98129.69;10340008;28;20069;-53
2023/10/04 14:33:08;;;;;;;11.38;6.57;;;;;;;25.98;28.21;98127.25;10339940;28;20047;-54
2023/10/04 14:38:07;;;;;;;10.40;6.32;;;;;;;25.94;28.07;98131.03;10339802;28;20097;-54
2023/10/04 14:43:09;;;;;;;13.98;6.80;;;;;;;26.01;28.75;98139.50;10340196;28;20068;-54
2023/10/04 14:48:08;;;;;;;15.07;6.88;;;;;;;25.72;28.82;98142.03;10338792;28;20080;-54
2023/10/04 14:53:08;;;;;;;11.82;6.22;;;;;;;25.61;29.15;98144.44;10340095;28;20037;-54
2023/10/04 14:58:06;;;;;;;13.35;6.22;;;;;;;25.41;29.43;98153.47;10339664;28;20091;-53
2023/10/04 15:03:06;;;;;;;14.85;5.95;;;;;;;25.29;29.56;98150.56;10338024;28;20479;-54
2023/10/04 15:08:05;;;;;;;13.18;6.15;;;;;;;25.20;29.76;98151.06;10338664;28;20057;-53
2023/10/04 15:13:04;;;;;;;11.80;6.13;;;;;;;25.19;29.66;98154.63;10336669;28;20061;-53
2023/10/04 15:18:04;;;;;;;12.93;6.05;;;;;;;25.04;30.26;98166.97;10336314;28;20148;-53
2023/10/04 15:23:05;;;;;;;13.13;5.63;;;;;;;24.93;30.43;98164.00;10336500;28;20079;-53
2023/10/04 15:28:12;;;;;;;11.48;5.43;;;;;;;24.71;30.59;98153.63;10335456;28;20080;-53
2023/10/04 15:33:11;;;;;;;10.52;5.13;;;;;;;24.72;30.71;98178.38;10332747;28;20476;-53
2023/10/04 15:38:10;;;;;;;13.73;5.47;;;;;;;24.39;31.42;98184.47;10334748;28;20447;-53
2023/10/04 15:43:11;;;;;;;14.57;5.70;;;;;;;24.13;31.54;98164.53;10335685;28;20073;-54
2023/10/04 15:48:11;;;;;;;13.07;5.80;;;;;;;24.03;32.01;98198.59;10335158;28;20073;-53
2023/10/04 15:53:10;;;;;;;14.02;6.03;;;;;;;23.91;32.22;98200.03;10335223;28;20064;-53
2023/10/04 15:58:09;;;;;;;19.58;6.07;;;;;;;23.71;32.88;98189.53;10335485;28;20060;-53
2023/10/04 16:03:13;;;;;;;17.95;7.72;;;;;;;23.45;34.21;98178.31;10334617;28;20028;-53
2023/10/04 16:08:12;;;;;;;16.55;7.45;;;;;;;23.16;35.53;98185.81;10333173;28;20080;-53
2023/10/04 16:13:11;;;;;;;24.08;7.63;;;;;;;23.06;36.81;98223.34;10333001;28;20101;-53
2023/10/04 16:18:12;;;;;;;17.25;7.18;;;;;;;22.69;37.68;98233.69;10332214;28;20042;-54
2023/10/04 16:23:17;;;;;;;22.92;10.40;;;;;;;22.32;38.41;98240.53;10331479;28;20071;-53
2023/10/04 16:28:16;;;;;;;21.58;9.43;;;;;;;21.98;39.22;98243.63;10329285;28;20029;-53
2023/10/04 16:33:15;;;;;;;18.42;7.90;;;;;;;21.67;39.59;98252.75;10329794;28;20068;-52
2023/10/04 16:38:14;;;;;;;19.02;7.07;;;;;;;21.35;39.98;98264.50;10330599;28;20121;-52
2023/10/04 16:43:13;;;;;;;18.90;7.13;;;;;;;21.09;40.50;98263.63;10330229;28;20052;-52
2023/10/04 16:48:12;;;;;;;14.43;6.57;;;;;;;20.83;40.98;98263.69;10330833;28;20512;-52
2023/10/04 16:53:12;;;;;;;18.00;6.88;;;;;;;20.39;41.43;98243.13;10320871;28;20124;-52
2023/10/04 16:58:13;;;;;;;13.10;6.03;;;;;;;20.37;41.95;98278.34;10323473;28;20117;-52
2023/10/04 17:03:12;;;;;;;16.92;7.38;;;;;;;20.11;42.64;98285.31;10320380;28;20064;-52
2023/10/04 17:08:11;;;;;;;18.13;8.48;;;;;;;19.90;43.14;98285.97;10322798;28;20099;-52
2023/10/04 17:13:10;;;;;;;17.55;7.47;;;;;;;19.68;43.37;98302.41;10324779;28;20037;-52
2023/10/04 17:18:09;;;;;;;12.73;6.47;;;;;;;19.43;44.04;98303.06;10326200;28;20088;-52
2023/10/04 17:23:14;;;;;;;18.60;7.57;;;;;;;19.28;43.99;98303.50;10326418;28;20072;-51
2023/10/04 17:28:14;;;;;;;18.35;7.35;;;;;;;19.18;43.99;98302.91;10333741;28;20061;-52
2023/10/04 17:33:14;;;;;;;18.95;7.57;;;;;;;19.10;44.21;98304.00;10334231;28;20061;-52
2023/10/04 17:38:13;;;;;;;19.33;8.65;;;;;;;18.98;44.46;98316.56;10334603;28;20057;-52
2023/10/04 17:43:12;;;;;;;21.70;8.00;;;;;;;18.89;44.95;98314.16;10333791;28;20021;-52
2023/10/04 17:48:12;;;;;;;15.60;7.65;;;;;;;18.69;45.13;98303.28;10334189;28;20075;-52
2023/10/04 17:53:11;;;;;;;18.17;7.57;;;;;;;18.68;45.35;98318.19;10332132;28;20536;-51
2023/10/04 17:58:10;;;;;;;17.27;8.40;;;;;;;18.50;46.96;98334.38;10333784;28;20024;-52
2023/10/04 18:03:09;;;;;;;20.33;8.30;;;;;;;18.41;46.86;98335.47;10333333;28;20532;-50
2023/10/04 18:08:12;;;;;;;19.65;9.75;;;;;;;18.30;47.26;98345.38;10332265;28;20516;-52
2023/10/04 18:13:11;;;;;;;27.05;12.88;;;;;;;17.95;49.15;98362.75;10330381;28;20584;-50
2023/10/04 18:18:10;;;;;;;22.52;11.65;;;;;;;17.96;49.11;98359.22;10327210;28;20105;-50
2023/10/04 18:23:11;;;;;;;17.25;9.35;;;;;;;17.75;50.17;98368.38;10328154;28;20072;-51
2023/10/04 18:28:10;;;;;;;25.90;12.20;;;;;;;17.53;51.18;98368.78;10329599;28;20113;-51
2023/10/04 18:33:10;;;;;;;23.20;12.68;;;;;;;17.50;50.89;98386.38;10328563;28;20033;-52
2023/10/04 18:38:09;;;;;;;22.48;12.32;;;;;;;17.40;51.28;98390.91;10327822;28;20064;-52
2023/10/04 18:43:09;;;;;;;25.23;11.77;;;;;;;17.34;51.56;98386.66;10328327;28;20061;-52
2023/10/04 18:48:09;;;;;;;22.27;13.80;;;;;;;17.23;52.20;98393.84;10328687;28;20073;-52
2023/10/04 18:53:10;;;;;;;23.30;12.50;;;;;;;17.08;52.83;98396.75;10327117;28;20073;-52
2023/10/04 18:58:10;;;;;;;23.77;11.90;;;;;;;16.96;52.91;98400.44;10328303;28;20365;-52
2023/10/04 19:03:09;;;;;;;20.45;9.70;;;;;;;16.86;52.88;98404.97;10327868;28;20076;-52
2023/10/04 19:08:08;;;;;;;17.33;8.05;;;;;;;16.76;53.00;98403.31;10326729;28;20466;-52
2023/10/04 19:13:07;;;;;;;;;;;;;;;16.69;53.37;98417.41;10326940;28;20032;-52
2023/10/04 19:18:07;;;;;;;15.52;7.38;;;;;;;16.60;53.62;98420.16;10327338;28;19975;-51
2023/10/04 19:23:08;;;;;;;14.15;7.93;;;;;;;16.51;54.09;98424.66;10326074;28;20069;-52
2023/10/04 19:28:14;;;;;;;22.13;10.77;;;;;;;16.33;54.99;98418.81;10325782;28;20540;-52
2023/10/04 19:33:14;;;;;;;20.67;9.55;;;;;;;16.26;55.16;98420.66;10324802;28;20111;-50
2023/10/04 19:38:13;;;;;;;18.02;8.15;;;;;;;15.97;55.29;98381.72;10325882;28;20488;-52
2023/10/04 19:43:12;;;;;;;;;;;;;;;16.04;56.82;98459.31;10325587;28;20385;-51
2023/10/04 19:48:11;;;;;;;24.17;10.47;;;;;;;15.55;59.29;98460.69;10325134;28;19917;-50
2023/10/04 19:53:11;;;;;;;;;;;;;;;15.61;58.40;98464.97;10325051;28;20112;-52
2023/10/04 19:58:13;;;;;;;18.77;9.05;;;;;;;15.62;58.39;98456.22;10325209;28;19987;-52
2023/10/04 20:03:12;;;;;;;18.88;8.40;;;;;;;15.53;58.88;98469.41;10324763;28;20061;-52
2023/10/04 20:08:14;;;;;;;;;;;;;;;15.36;59.72;98467.81;10325802;28;20487;-52
2023/10/04 20:13:15;;;;;;;16.02;7.70;;;;;;;15.18;60.58;98462.75;10324190;28;20347;-51
2023/10/04 20:18:18;;;;;;;18.45;8.05;;;;;;;15.40;59.44;98463.44;10325125;28;20073;-50
2023/10/04 20:23:17;;;;;;;15.90;7.45;;;;;;;15.48;59.19;98460.75;10324554;28;20076;-52
2023/10/04 20:28:17;;;;;;;;;;;;;;;15.48;59.43;98464.22;10324499;28;20108;-52
2023/10/04 20:33:15;;;;;;;15.90;7.63;;;;;;;15.60;58.80;98464.13;10324657;28;19999;-51
2023/10/04 20:38:14;;;;;;;;;;;;;;;15.74;58.17;98471.84;10324343;28;20295;-51
2023/10/04 20:43:13;;;;;;;17.55;7.85;;;;;;;15.88;57.89;98474.34;10323631;28;19941;-51
2023/10/04 20:48:14;;;;;;;;;;;;;;;15.94;57.90;98478.63;10324497;28;20112;-51
2023/10/04 20:53:14;;;;;;;14.63;7.88;;;;;;;15.90;57.94;98477.78;10322395;28;20437;-50
2023/10/04 20:58:15;;;;;;;15.13;8.50;;;;;;;15.42;58.88;98432.91;10323470;28;20065;-51
2023/10/04 21:03:16;;;;;;;15.93;8.52;;;;;;;15.63;58.70;98479.78;10324222;28;20435;-49
2023/10/04 21:08:18;;;;;;;14.85;7.45;;;;;;;15.56;58.59;98478.09;10322871;28;20132;-49
2023/10/04 21:13:17;;;;;;;15.90;8.63;;;;;;;15.51;59.46;98479.91;10323001;28;20364;-52
2023/10/04 21:18:16;;;;;;;;;;;;;;;15.37;59.71;98477.41;10323636;28;20113;-51
2023/10/04 21:23:15;;;;;;;20.52;10.70;;;;;;;14.93;60.74;98459.47;10322516;28;19921;-52
2023/10/04 21:28:14;;;;;;;;;;;;;;;15.00;60.63;98485.53;10322698;28;20020;-52
2023/10/04 21:33:22;;;;;;;18.90;9.40;;;;;;;14.94;60.42;98482.09;10322544;28;19959;-52
2023/10/04 21:38:26;;;;;;;18.83;10.40;;;;;;;14.89;60.71;98479.50;10322874;28;20355;-51
2023/10/04 21:43:25;;;;;;;15.63;8.38;;;;;;;14.62;62.40;98477.91;10322684;28;20512;-51
2023/10/04 21:48:28;;;;;;;;;;;;;;;14.74;62.52;98480.47;10324147;28;20112;-51
2023/10/04 21:53:27;;;;;;;16.58;8.82;;;;;;;14.82;61.99;98462.13;10322437;28;19960;-52
2023/10/04 21:58:27;;;;;;;;;;;;;;;14.66;63.19;98474.38;10322749;28;20103;-51
2023/10/04 22:03:26;;;;;;;14.97;8.30;;;;;;;14.67;62.61;98470.91;10321881;28;19987;-51
2023/10/04 22:08:27;;;;;;;;;;;;;;;14.56;63.07;98480.56;10322403;28;20112;-50
2023/10/04 22:13:28;;;;;;;12.95;7.88;;;;;;;14.38;64.28;98476.28;10329242;28;20031;-51
2023/10/04 22:18:27;;;;;;;15.38;8.60;;;;;;;14.36;63.84;98475.44;10331193;28;20076;-52
2023/10/04 22:23:26;;;;;;;;;;;;;;;14.34;63.87;98478.06;10330856;28;20091;-50
2023/10/04 22:28:26;;;;;;;17.95;9.90;;;;;;;14.19;65.31;98462.44;10329504;28;20011;-50
2023/10/04 22:33:26;;;;;;;17.05;9.18;;;;;;;14.25;64.86;98485.91;10331553;28;20083;-50
2023/10/04 22:38:25;;;;;;;16.98;8.98;;;;;;;14.23;64.92;98479.84;10332013;28;20072;-52
2023/10/04 22:43:24;;;;;;;;;;;;;;;14.25;65.05;98474.63;10331689;28;20127;-52
2023/10/04 22:48:23;;;;;;;15.32;8.52;;;;;;;13.93;64.56;98415.56;10331409;28;19999;-50
2023/10/04 22:53:22;;;;;;;;;;;;;;;14.28;65.28;98479.81;10332053;28;20120;-52
2023/10/04 22:58:22;;;;;;;18.65;10.35;;;;;;;14.29;65.60;98476.31;10331035;28;19923;-50
2023/10/04 23:03:22;;;;;;;15.73;9.15;;;;;;;14.19;65.72;98479.00;10330971;28;20071;-51
2023/10/04 23:08:21;;;;;;;19.48;9.38;;;;;;;14.23;66.04;98487.66;10330593;28;20148;-52